Terminal Aerodrome Forecast
Issued by NWS

Home | Current Version | Previous Version | Text Only | Print | Product List | Glossary On
Versions: 1 2 3 4 5 6 7 8 9 10 11 12 13 14
000
FTUS43 KDTX 211731
TAFMBS
TAF
KMBS 211731Z 2118/2218 21007KT P6SM SCT120 BKN200
     FM220400 21007KT P6SM BKN060 OVC120
     FM220800 23010G20KT 3SM SHRA BR VCTS OVC040CB
     FM221300 24013G23KT P6SM BKN040=

USA.gov is the U.S. government's official web portal to all federal, state and local government web resources and services.